createdAt,value
2022-11-30T00:01:13.242Z,4.30
2022-11-30T00:03:41.943Z,4.20
2022-11-30T00:06:12.317Z,4.20
2022-11-30T00:08:40.785Z,4.20
2022-11-30T00:11:10.760Z,4.20
2022-11-30T00:13:40.592Z,4.20
2022-11-30T00:16:09.686Z,4.20
2022-11-30T00:18:38.865Z,4.20
2022-11-30T00:21:09.635Z,4.20
2022-11-30T00:23:40.366Z,4.30
2022-11-30T00:26:11.005Z,4.20
2022-11-30T00:28:41.845Z,4.20
2022-11-30T00:31:12.834Z,4.20
2022-11-30T00:33:41.432Z,4.30
2022-11-30T00:36:13.328Z,4.30
2022-11-30T00:38:41.842Z,4.30
2022-11-30T00:41:10.950Z,4.30
2022-11-30T00:43:43.255Z,4.30
2022-11-30T00:46:11.994Z,4.30
2022-11-30T00:48:40.996Z,4.30
2022-11-30T00:51:11.830Z,4.30
2022-11-30T00:53:40.434Z,4.30
2022-11-30T00:56:09.728Z,4.30
2022-11-30T00:58:38.194Z,4.30
2022-11-30T01:01:08.513Z,4.40
2022-11-30T01:03:37.924Z,4.40
2022-11-30T01:06:07.194Z,4.40
2022-11-30T01:08:38.556Z,4.40
2022-11-30T01:11:09.618Z,4.40
2022-11-30T01:13:38.160Z,4.50
2022-11-30T01:16:13.341Z,4.50
2022-11-30T01:18:41.776Z,4.50
2022-11-30T01:21:13.560Z,4.50
2022-11-30T01:23:45.310Z,4.50
2022-11-30T01:26:14.142Z,4.50
2022-11-30T01:28:44.036Z,4.50
2022-11-30T01:31:15.713Z,4.50
2022-11-30T01:33:44.223Z,4.50
2022-11-30T01:36:14.384Z,4.50
2022-11-30T01:38:45.434Z,4.50
2022-11-30T01:41:16.017Z,4.50
2022-11-30T01:43:47.263Z,4.60
2022-11-30T01:46:29.979Z,4.60
2022-11-30T01:49:11.726Z,4.60
2022-11-30T01:51:47.232Z,4.50
2022-11-30T01:54:17.937Z,4.50
2022-11-30T01:56:50.000Z,4.60
2022-11-30T01:59:21.057Z,4.60
2022-11-30T02:01:51.160Z,4.60
2022-11-30T02:04:23.418Z,4.60
2022-11-30T02:06:51.679Z,4.70
2022-11-30T02:09:22.550Z,4.70
2022-11-30T02:11:52.099Z,4.70
2022-11-30T02:14:31.083Z,4.70
2022-11-30T02:17:09.448Z,4.70
2022-11-30T02:20:15.545Z,4.70
2022-11-30T02:22:57.119Z,4.70
2022-11-30T02:25:35.550Z,4.70
2022-11-30T02:28:23.482Z,4.70
2022-11-30T02:30:54.754Z,4.70
2022-11-30T02:33:26.923Z,4.70
2022-11-30T02:35:56.685Z,4.80
2022-11-30T02:38:27.579Z,4.80
2022-11-30T02:40:55.824Z,4.80
2022-11-30T02:43:26.451Z,4.80
2022-11-30T02:46:07.411Z,4.80
2022-11-30T02:48:43.697Z,4.80
2022-11-30T02:51:15.841Z,4.80
2022-11-30T02:53:44.233Z,4.80
2022-11-30T02:56:12.410Z,4.80
2022-11-30T02:58:41.526Z,4.80
2022-11-30T03:01:11.462Z,4.90
2022-11-30T03:03:39.690Z,4.80
2022-11-30T03:06:08.399Z,4.80
2022-11-30T03:08:36.609Z,4.80
2022-11-30T03:11:05.091Z,4.80
2022-11-30T03:13:35.630Z,4.80
2022-11-30T03:16:08.191Z,4.80
2022-11-30T03:18:38.702Z,4.90
2022-11-30T03:21:07.626Z,4.90
2022-11-30T03:23:36.631Z,4.90
2022-11-30T03:26:06.472Z,4.90
2022-11-30T03:28:34.730Z,4.90
2022-11-30T03:31:03.069Z,4.90
2022-11-30T03:33:31.740Z,4.90
2022-11-30T03:36:02.443Z,4.90
2022-11-30T03:38:30.659Z,4.90
2022-11-30T03:41:03.762Z,4.90
2022-11-30T03:43:31.966Z,4.90
2022-11-30T03:46:00.503Z,4.90
2022-11-30T03:48:29.265Z,5.00
2022-11-30T03:50:57.534Z,4.90
2022-11-30T03:53:27.126Z,4.90
2022-11-30T03:55:56.765Z,4.90
2022-11-30T03:58:25.926Z,4.90
2022-11-30T04:01:01.483Z,4.90
2022-11-30T04:03:30.467Z,4.90
2022-11-30T04:05:59.623Z,4.90
2022-11-30T04:08:30.388Z,4.90
2022-11-30T04:11:00.374Z,4.90
2022-11-30T04:13:29.889Z,4.90
2022-11-30T04:15:58.374Z,4.90
2022-11-30T04:18:28.415Z,4.90
2022-11-30T04:20:58.986Z,4.80
2022-11-30T04:23:31.552Z,4.80
2022-11-30T04:26:00.678Z,4.80
2022-11-30T04:28:28.988Z,4.80
2022-11-30T04:30:57.555Z,4.90
2022-11-30T04:33:25.857Z,4.90
2022-11-30T04:35:59.048Z,4.90
2022-11-30T04:38:29.621Z,4.90
2022-11-30T04:40:58.057Z,4.90
2022-11-30T04:43:27.228Z,4.90
2022-11-30T04:45:55.620Z,4.90
2022-11-30T04:48:23.806Z,4.90
2022-11-30T04:50:52.393Z,5.10
2022-11-30T04:53:23.406Z,5.00
2022-11-30T04:55:53.084Z,5.00
2022-11-30T04:58:21.734Z,5.00
2022-11-30T05:00:49.959Z,5.00
2022-11-30T05:03:20.310Z,5.00
2022-11-30T05:05:48.919Z,5.00
2022-11-30T05:08:17.115Z,5.00
2022-11-30T05:10:51.592Z,5.10
2022-11-30T05:13:24.167Z,5.10
2022-11-30T05:15:53.912Z,5.10
2022-11-30T05:18:22.939Z,5.10
2022-11-30T05:20:52.244Z,5.10
2022-11-30T05:23:21.363Z,5.10
2022-11-30T05:25:49.827Z,5.10
2022-11-30T05:28:18.225Z,5.10
2022-11-30T05:30:48.239Z,5.10
2022-11-30T05:33:16.623Z,5.10
2022-11-30T05:35:45.030Z,5.10
2022-11-30T05:38:13.214Z,5.10
2022-11-30T05:40:41.466Z,5.10
2022-11-30T05:43:10.238Z,5.10
2022-11-30T05:45:38.433Z,5.10
2022-11-30T05:48:08.406Z,5.10
2022-11-30T05:50:36.625Z,5.10
2022-11-30T05:53:04.836Z,5.10
2022-11-30T05:55:33.327Z,5.20
2022-11-30T05:58:02.735Z,5.10
2022-11-30T06:00:30.984Z,5.20
2022-11-30T06:02:59.609Z,5.20
2022-11-30T06:05:29.597Z,5.20
2022-11-30T06:08:01.555Z,5.20
2022-11-30T06:10:29.776Z,5.20
2022-11-30T06:12:58.215Z,5.20
2022-11-30T06:15:26.774Z,5.20
2022-11-30T06:17:57.279Z,5.10
2022-11-30T06:20:25.634Z,5.10
2022-11-30T06:22:55.255Z,5.10
2022-11-30T06:25:23.399Z,5.10
2022-11-30T06:27:51.686Z,5.10
2022-11-30T06:30:20.659Z,5.00
2022-11-30T06:32:50.138Z,4.90
2022-11-30T06:35:19.531Z,4.90
2022-11-30T06:37:47.830Z,4.90
2022-11-30T06:40:17.749Z,4.90
2022-11-30T06:42:46.454Z,5.00
2022-11-30T06:45:14.639Z,4.90
2022-11-30T06:47:42.826Z,5.00
2022-11-30T06:50:11.228Z,5.00
2022-11-30T06:52:40.771Z,5.00
2022-11-30T06:55:09.701Z,4.90
2022-11-30T06:57:39.500Z,5.00
2022-11-30T07:00:09.588Z,5.00
2022-11-30T07:02:38.299Z,5.00
2022-11-30T07:05:07.397Z,5.00
2022-11-30T07:07:35.902Z,5.00
2022-11-30T07:10:04.164Z,4.90
2022-11-30T07:12:32.598Z,5.00
2022-11-30T07:15:02.287Z,4.90
2022-11-30T07:17:30.531Z,4.90
2022-11-30T07:19:58.828Z,4.90
2022-11-30T07:22:27.183Z,4.90
2022-11-30T07:25:12.975Z,4.90
2022-11-30T07:27:41.271Z,4.90
2022-11-30T07:30:12.173Z,4.80
2022-11-30T07:32:40.504Z,4.80
2022-11-30T07:35:09.436Z,4.90
2022-11-30T07:37:37.655Z,4.90
2022-11-30T07:40:07.080Z,4.90
2022-11-30T07:42:35.297Z,4.90
2022-11-30T07:45:03.467Z,4.90
2022-11-30T07:47:32.970Z,4.90
2022-11-30T07:50:01.366Z,4.90
2022-11-30T07:52:31.696Z,4.90
2022-11-30T07:55:00.013Z,4.90
2022-11-30T07:57:29.065Z,4.90
2022-11-30T07:59:57.149Z,4.90
2022-11-30T08:02:25.501Z,4.90
2022-11-30T08:04:58.356Z,4.90
2022-11-30T08:07:26.651Z,4.90
2022-11-30T08:09:54.934Z,4.90
2022-11-30T08:12:23.207Z,4.90
2022-11-30T08:15:18.948Z,4.90
2022-11-30T08:17:40.534Z,4.90
2022-11-30T08:20:13.163Z,4.90
2022-11-30T08:22:41.454Z,4.90
2022-11-30T08:25:10.512Z,4.90
2022-11-30T08:27:38.847Z,4.90
2022-11-30T08:30:08.315Z,5.00
2022-11-30T08:32:36.504Z,5.00
2022-11-30T08:35:05.048Z,5.00
2022-11-30T08:37:37.893Z,5.00
2022-11-30T08:40:07.409Z,5.00
2022-11-30T08:42:35.792Z,5.00
2022-11-30T08:45:04.776Z,5.00
2022-11-30T08:47:33.196Z,5.10
2022-11-30T08:50:01.802Z,5.10
2022-11-30T08:52:30.224Z,5.10
2022-11-30T08:54:59.770Z,5.10
2022-11-30T08:57:28.110Z,5.10
2022-11-30T08:59:56.259Z,5.20
2022-11-30T09:02:24.721Z,5.20
2022-11-30T09:04:53.629Z,5.20
2022-11-30T09:07:21.962Z,5.20
2022-11-30T09:09:50.243Z,5.30
2022-11-30T09:12:19.845Z,5.30
2022-11-30T09:14:55.878Z,5.30
2022-11-30T09:17:26.255Z,5.40
2022-11-30T09:19:54.795Z,5.40
2022-11-30T09:22:22.898Z,5.40
2022-11-30T09:24:51.222Z,5.50
2022-11-30T09:27:20.857Z,5.50
2022-11-30T09:29:48.955Z,5.50
2022-11-30T09:32:18.471Z,5.50
2022-11-30T09:34:46.974Z,5.60
2022-11-30T09:37:15.380Z,5.60
2022-11-30T09:39:43.961Z,5.60
2022-11-30T09:42:42.457Z,5.40
2022-11-30T09:45:17.856Z,5.50
2022-11-30T09:48:21.689Z,5.60
2022-11-30T09:50:51.916Z,5.70
2022-11-30T09:53:29.727Z,5.80
2022-11-30T09:56:00.240Z,5.80
2022-11-30T09:58:40.678Z,5.90
2022-11-30T10:01:18.536Z,6.00
2022-11-30T10:03:47.319Z,6.00
2022-11-30T10:06:23.830Z,6.10
2022-11-30T10:09:01.491Z,6.10
2022-11-30T10:11:45.962Z,6.10
2022-11-30T10:14:35.046Z,6.10
2022-11-30T10:17:11.077Z,6.10
2022-11-30T10:19:55.646Z,6.00
2022-11-30T10:22:30.586Z,6.00
2022-11-30T10:25:13.993Z,6.00
2022-11-30T10:27:51.135Z,6.00
2022-11-30T10:30:23.431Z,6.00
2022-11-30T10:32:54.235Z,6.20
2022-11-30T10:35:34.752Z,6.20
2022-11-30T10:38:11.980Z,6.20
2022-11-30T10:40:45.689Z,6.30
2022-11-30T10:43:20.239Z,6.30
2022-11-30T10:45:51.642Z,6.30
2022-11-30T10:48:25.573Z,6.40
2022-11-30T10:50:54.697Z,6.40
2022-11-30T10:53:23.502Z,6.30
2022-11-30T10:56:00.116Z,6.30
2022-11-30T10:58:32.686Z,6.30
2022-11-30T11:01:08.910Z,6.40
2022-11-30T11:03:37.824Z,6.30
2022-11-30T11:06:12.808Z,6.30
2022-11-30T11:08:45.419Z,6.30
2022-11-30T11:11:32.923Z,6.30
2022-11-30T11:14:17.885Z,6.40
2022-11-30T11:16:57.932Z,6.40
2022-11-30T11:19:34.820Z,6.40
2022-11-30T11:22:05.416Z,6.40
2022-11-30T11:24:35.031Z,6.30
2022-11-30T11:27:03.415Z,6.40
2022-11-30T11:29:34.271Z,6.40
2022-11-30T11:32:20.099Z,6.50
2022-11-30T11:34:51.290Z,6.60
2022-11-30T11:37:23.469Z,6.70
2022-11-30T11:40:01.013Z,6.40
2022-11-30T11:42:32.360Z,6.40
2022-11-30T11:45:02.843Z,6.50
2022-11-30T11:47:40.014Z,6.50
2022-11-30T11:51:05.137Z,6.60
2022-11-30T11:53:25.666Z,6.60
2022-11-30T11:55:59.056Z,6.80
2022-11-30T11:58:39.055Z,6.80
2022-11-30T12:01:38.583Z,6.80
2022-11-30T12:04:15.668Z,6.70
2022-11-30T12:06:46.488Z,7.00
2022-11-30T12:09:19.222Z,7.10
2022-11-30T12:11:49.772Z,7.20
2022-11-30T12:14:20.101Z,7.30
2022-11-30T12:17:13.777Z,7.20
2022-11-30T12:19:51.060Z,7.10
2022-11-30T12:22:39.037Z,7.10
2022-11-30T12:25:21.351Z,7.10
2022-11-30T12:27:58.527Z,7.20
2022-11-30T12:30:34.258Z,7.20
2022-11-30T12:33:13.112Z,7.30
2022-11-30T12:35:59.450Z,7.30
2022-11-30T12:38:46.087Z,7.50
2022-11-30T12:41:32.530Z,7.50
2022-11-30T12:44:30.574Z,7.40
2022-11-30T12:47:08.435Z,7.50
2022-11-30T12:49:54.402Z,7.40
2022-11-30T12:52:36.064Z,7.60
2022-11-30T12:55:15.562Z,7.50
2022-11-30T12:57:50.699Z,7.50
2022-11-30T13:00:22.049Z,7.50
2022-11-30T13:03:22.494Z,7.50
2022-11-30T13:05:57.259Z,7.60
2022-11-30T13:08:31.157Z,7.50
2022-11-30T13:11:04.046Z,7.50
2022-11-30T13:13:35.178Z,7.50
2022-11-30T13:16:09.809Z,7.50
2022-11-30T13:18:38.550Z,7.50
2022-11-30T13:21:15.809Z,7.60
2022-11-30T13:23:54.845Z,7.60
2022-11-30T13:26:30.085Z,7.60
2022-11-30T13:29:13.297Z,7.70
2022-11-30T13:31:49.025Z,7.70
2022-11-30T13:34:28.456Z,7.70
2022-11-30T13:37:06.217Z,7.70
2022-11-30T13:39:47.541Z,7.60
2022-11-30T13:42:34.470Z,7.60
2022-11-30T13:45:20.225Z,7.50
2022-11-30T13:47:51.208Z,7.50
2022-11-30T13:50:27.930Z,7.40
2022-11-30T13:53:21.494Z,7.30
2022-11-30T13:56:03.070Z,7.40
2022-11-30T13:58:31.923Z,7.50
2022-11-30T14:01:28.574Z,7.60
2022-11-30T14:04:31.710Z,7.60
2022-11-30T14:07:00.844Z,7.50
2022-11-30T14:10:00.121Z,7.50
2022-11-30T14:13:00.735Z,7.50
2022-11-30T14:15:51.887Z,7.40
2022-11-30T14:18:40.885Z,7.40
2022-11-30T14:21:23.108Z,7.40
2022-11-30T14:24:00.381Z,7.50
2022-11-30T14:26:37.692Z,7.60
2022-11-30T14:29:18.753Z,7.60
2022-11-30T14:31:58.072Z,7.50
2022-11-30T14:34:29.983Z,7.60
2022-11-30T14:37:02.248Z,7.50
2022-11-30T14:39:35.512Z,7.40
2022-11-30T14:42:05.310Z,7.40
2022-11-30T14:44:41.120Z,7.30
2022-11-30T14:47:17.543Z,7.30
2022-11-30T14:49:51.945Z,7.30
2022-11-30T14:52:38.204Z,7.30
2022-11-30T14:55:18.914Z,7.30
2022-11-30T14:57:54.015Z,7.30
2022-11-30T15:00:24.226Z,7.30
2022-11-30T15:02:52.595Z,7.30
2022-11-30T15:05:27.166Z,7.20
2022-11-30T15:07:55.629Z,7.30
2022-11-30T15:10:30.995Z,7.20
2022-11-30T15:13:00.801Z,7.20
2022-11-30T15:15:31.659Z,7.20
2022-11-30T15:18:11.232Z,7.20
2022-11-30T15:20:43.938Z,7.10
2022-11-30T15:23:14.623Z,7.10
2022-11-30T15:25:47.591Z,7.10
2022-11-30T15:28:21.366Z,7.10
2022-11-30T15:30:54.914Z,7.10
2022-11-30T15:33:25.224Z,7.10
2022-11-30T15:38:50.376Z,7.00
2022-11-30T15:41:21.727Z,7.00
2022-11-30T15:43:53.185Z,7.00
2022-11-30T15:46:32.854Z,7.00
2022-11-30T15:49:16.135Z,7.00
2022-11-30T15:51:47.456Z,7.00
2022-11-30T15:54:15.886Z,7.00
2022-11-30T15:56:57.774Z,6.90
2022-11-30T15:59:27.358Z,6.90
2022-11-30T16:02:08.707Z,6.80
2022-11-30T16:05:14.245Z,6.80
2022-11-30T16:07:50.830Z,6.80
2022-11-30T16:10:22.621Z,6.80
2022-11-30T16:12:52.443Z,6.80
2022-11-30T16:15:23.316Z,6.80
2022-11-30T16:17:54.622Z,6.80
2022-11-30T16:20:23.057Z,6.80
2022-11-30T16:22:51.193Z,6.80
2022-11-30T16:25:22.188Z,6.70
2022-11-30T16:27:50.933Z,6.70
2022-11-30T16:30:21.100Z,6.70
2022-11-30T16:32:49.774Z,6.70
2022-11-30T16:35:25.146Z,6.70
2022-11-30T16:37:53.802Z,6.70
2022-11-30T16:40:22.230Z,6.60
2022-11-30T16:42:51.886Z,6.60
2022-11-30T16:45:22.497Z,6.60
2022-11-30T16:47:51.585Z,6.60
2022-11-30T16:50:24.189Z,6.60
2022-11-30T16:52:52.768Z,6.50
2022-11-30T16:55:23.030Z,6.50
2022-11-30T16:57:52.117Z,6.50
2022-11-30T17:00:21.094Z,6.50
2022-11-30T17:03:20.663Z,6.50
2022-11-30T17:05:50.762Z,6.50
2022-11-30T17:08:18.984Z,6.50
2022-11-30T17:10:47.528Z,6.40
2022-11-30T17:13:18.020Z,6.50
2022-11-30T17:15:46.585Z,6.40
2022-11-30T17:18:15.326Z,6.40
2022-11-30T17:20:43.699Z,6.40
2022-11-30T17:23:13.195Z,6.30
2022-11-30T17:25:41.525Z,6.40
2022-11-30T17:28:09.861Z,6.40
2022-11-30T17:30:38.170Z,6.40
2022-11-30T17:33:06.584Z,6.30
2022-11-30T17:35:35.031Z,6.30
2022-11-30T17:38:03.170Z,6.30
2022-11-30T17:40:32.943Z,6.30
2022-11-30T17:43:01.176Z,6.20
2022-11-30T17:45:29.340Z,6.20
2022-11-30T17:47:57.635Z,6.20
2022-11-30T17:50:25.841Z,6.20
2022-11-30T17:52:54.059Z,6.10
2022-11-30T17:55:22.487Z,6.10
2022-11-30T17:57:52.274Z,6.10
2022-11-30T18:00:21.203Z,6.10
2022-11-30T18:02:51.954Z,6.10
2022-11-30T18:05:20.738Z,6.10
2022-11-30T18:07:49.067Z,6.10
2022-11-30T18:10:17.535Z,6.10
2022-11-30T18:12:45.812Z,6.10
2022-11-30T18:15:15.575Z,6.10
2022-11-30T18:17:43.814Z,6.10
2022-11-30T18:20:13.196Z,6.00
2022-11-30T18:22:41.511Z,6.00
2022-11-30T18:25:10.427Z,5.90
2022-11-30T18:27:38.590Z,5.90
2022-11-30T18:30:10.425Z,5.80
2022-11-30T18:32:40.213Z,5.70
2022-11-30T18:35:09.213Z,5.70
2022-11-30T18:37:37.383Z,5.70
2022-11-30T18:40:06.205Z,5.70
2022-11-30T18:42:34.600Z,5.70
2022-11-30T18:45:02.814Z,5.70
2022-11-30T18:47:30.967Z,5.70
2022-11-30T18:50:00.539Z,5.70
2022-11-30T18:52:28.692Z,5.80
2022-11-30T18:54:56.859Z,5.70
2022-11-30T18:57:25.152Z,5.70
2022-11-30T18:59:54.087Z,5.70
2022-11-30T19:02:22.649Z,5.80
2022-11-30T19:04:51.141Z,5.70
2022-11-30T19:07:20.881Z,5.80
2022-11-30T19:09:49.281Z,5.80
2022-11-30T19:12:17.640Z,5.70
2022-11-30T19:14:46.166Z,5.70
2022-11-30T19:17:14.743Z,5.70
2022-11-30T19:19:43.055Z,5.70
2022-11-30T19:22:11.204Z,5.70
2022-11-30T19:24:41.072Z,5.70
2022-11-30T19:27:09.401Z,5.70
2022-11-30T19:29:37.518Z,5.70
2022-11-30T19:32:06.660Z,5.70
2022-11-30T19:34:34.923Z,5.70
2022-11-30T19:37:03.096Z,5.70
2022-11-30T19:39:31.414Z,5.70
2022-11-30T19:42:01.450Z,5.70
2022-11-30T19:44:29.728Z,5.70
2022-11-30T19:46:58.061Z,5.60
2022-11-30T19:49:26.555Z,5.60
2022-11-30T19:51:54.713Z,5.60
2022-11-30T19:54:22.886Z,5.60
2022-11-30T19:56:51.266Z,5.60
2022-11-30T19:59:20.930Z,5.60
2022-11-30T20:01:49.292Z,5.60
2022-11-30T20:04:20.950Z,5.60
2022-11-30T20:06:49.139Z,5.60
2022-11-30T20:09:17.691Z,5.70
2022-11-30T20:11:46.016Z,5.70
2022-11-30T20:14:17.662Z,5.60
2022-11-30T20:16:47.686Z,5.70
2022-11-30T20:19:17.275Z,5.60
2022-11-30T20:21:45.951Z,5.60
2022-11-30T20:24:14.489Z,5.60
2022-11-30T20:26:44.126Z,5.60
2022-11-30T20:29:14.959Z,5.50
2022-11-30T20:31:47.608Z,5.50
2022-11-30T20:34:15.848Z,5.50
2022-11-30T20:36:45.229Z,5.40
2022-11-30T20:39:13.920Z,5.40
2022-11-30T20:41:42.428Z,5.40
2022-11-30T20:44:14.607Z,5.40
2022-11-30T20:46:43.256Z,5.40
2022-11-30T20:49:17.709Z,5.40
2022-11-30T20:51:47.153Z,5.40
2022-11-30T20:54:16.677Z,5.40
2022-11-30T20:56:46.835Z,5.40
2022-11-30T20:59:19.593Z,5.40
2022-11-30T21:01:48.849Z,5.40
2022-11-30T21:04:18.736Z,5.40
2022-11-30T21:06:47.127Z,5.40
2022-11-30T21:09:15.957Z,5.40
2022-11-30T21:11:44.938Z,5.40
2022-11-30T21:14:13.688Z,5.30
2022-11-30T21:16:42.448Z,5.30
2022-11-30T21:19:11.834Z,5.20
2022-11-30T21:21:41.474Z,5.20
2022-11-30T21:24:12.675Z,5.20
2022-11-30T21:26:43.129Z,5.20
2022-11-30T21:29:13.572Z,5.20
2022-11-30T21:31:41.983Z,5.10
2022-11-30T21:34:10.427Z,5.10
2022-11-30T21:36:38.909Z,5.00
2022-11-30T21:39:09.259Z,5.00
2022-11-30T21:41:39.688Z,5.00
2022-11-30T21:44:09.580Z,4.90
2022-11-30T21:46:37.840Z,4.90
2022-11-30T21:49:06.541Z,4.80
2022-11-30T21:51:34.982Z,4.80
2022-11-30T21:54:04.671Z,4.70
2022-11-30T21:56:36.365Z,4.70
2022-11-30T21:59:06.864Z,4.60
2022-11-30T22:01:37.741Z,4.50
2022-11-30T22:04:07.512Z,4.50
2022-11-30T22:06:37.519Z,4.40
2022-11-30T22:09:08.862Z,4.40
2022-11-30T22:11:40.075Z,4.40
2022-11-30T22:14:11.459Z,4.40
2022-11-30T22:16:40.028Z,4.40
2022-11-30T22:19:10.914Z,4.40
2022-11-30T22:21:39.080Z,4.30
2022-11-30T22:24:10.661Z,4.40
2022-11-30T22:26:41.814Z,4.40
2022-11-30T22:29:14.111Z,4.30
2022-11-30T22:31:44.542Z,4.30
2022-11-30T22:34:13.328Z,4.30
2022-11-30T22:36:43.425Z,4.30
2022-11-30T22:39:15.749Z,4.20
2022-11-30T22:41:51.258Z,4.20
2022-11-30T22:44:26.464Z,4.10
2022-11-30T22:46:54.915Z,4.10
2022-11-30T22:49:23.477Z,4.00
2022-11-30T22:51:51.934Z,4.00
2022-11-30T22:54:20.458Z,4.00
2022-11-30T22:56:49.982Z,4.00
2022-11-30T22:59:18.341Z,4.00
2022-11-30T23:01:48.035Z,4.00
2022-11-30T23:04:21.468Z,4.00
2022-11-30T23:06:50.979Z,3.90
2022-11-30T23:09:21.944Z,3.90
2022-11-30T23:11:52.228Z,3.90
2022-11-30T23:14:20.703Z,3.80
2022-11-30T23:16:49.275Z,3.80
2022-11-30T23:19:18.436Z,3.80
2022-11-30T23:21:46.772Z,3.80
2022-11-30T23:24:20.510Z,3.80
2022-11-30T23:26:51.148Z,3.80
2022-11-30T23:29:19.594Z,3.70
2022-11-30T23:31:49.248Z,3.70
2022-11-30T23:34:18.957Z,3.70
2022-11-30T23:36:47.219Z,3.60
2022-11-30T23:39:17.802Z,3.60
2022-11-30T23:41:45.950Z,3.60
2022-11-30T23:44:15.760Z,3.50
2022-11-30T23:46:44.443Z,3.50
2022-11-30T23:49:14.023Z,3.50
2022-11-30T23:51:42.593Z,3.40
2022-11-30T23:54:11.135Z,3.40
2022-11-30T23:56:39.396Z,3.40
2022-11-30T23:59:07.653Z,3.30
